Time;durP1;ratioP1;P1;durP2;ratioP2;P2;SDS_P1;SDS_P2;PMS_P1;PMS_P2;Temp;Humidity;BMP_temperature;BMP_pressure;BME280_temperature;BME280_humidity;BME280_pressure;Samples;Min_cycle;Max_cycle;Signal;HPM_P1;HPM_P2
2022/05/10 00:01:25;;;;;;;9.60;3.15;;;;;;;10.85;78.17;101946.78;4972116;28;20044;-75
2022/05/10 00:15:28;;;;;;;10.82;3.03;;;;;;;11.04;77.92;101958.47;4866253;29;20046;-80
2022/05/10 00:17:54;;;;;;;10.40;3.03;;;;;;;10.98;77.88;101951.91;4846654;29;20034;-79
2022/05/10 00:20:23;;;;;;;7.38;2.80;;;;;;;10.93;78.30;101950.59;4846447;29;20032;-82
2022/05/10 00:22:49;;;;;;;7.45;2.80;;;;;;;11.00;77.27;101949.16;4855791;29;20045;-77
2022/05/10 00:25:18;;;;;;;9.32;2.85;;;;;;;10.91;78.58;101940.22;4851524;29;20056;-79
2022/05/10 00:27:44;;;;;;;8.77;3.47;;;;;;;10.92;78.69;101947.13;4842754;29;21305;-79
2022/05/10 00:30:10;;;;;;;10.50;3.13;;;;;;;10.95;79.21;101943.44;4827629;29;20497;-78
2022/05/10 00:32:37;;;;;;;11.32;2.95;;;;;;;10.87;79.50;101944.03;4860510;29;20038;-79
2022/05/10 00:35:05;;;;;;;8.13;3.28;;;;;;;10.82;79.37;101946.19;4868802;29;20041;-79
2022/05/10 00:37:33;;;;;;;8.05;2.63;;;;;;;10.69;79.35;101941.88;4849509;29;20073;-78
2022/05/10 00:39:59;;;;;;;7.25;3.03;;;;;;;10.75;80.74;101935.31;4858582;29;20029;-78
2022/05/10 00:42:44;;;;;;;6.22;3.40;;;;;;;10.90;78.64;101935.91;4839250;29;20038;-77
2022/05/10 00:45:16;;;;;;;12.15;3.42;;;;;;;10.97;78.26;101938.91;4831459;29;20078;-80
2022/05/10 00:48:04;;;;;;;9.35;2.75;;;;;;;11.04;77.99;101940.94;4863724;29;20041;-81
2022/05/10 00:50:35;;;;;;;7.47;3.28;;;;;;;10.95;78.80;101932.94;4854172;29;20089;-79
2022/05/10 00:53:11;;;;;;;7.95;3.00;;;;;;;10.82;79.49;101936.50;4854391;29;20046;-79
2022/05/10 00:55:42;;;;;;;8.70;2.80;;;;;;;10.76;79.92;101920.41;4853952;29;20139;-80
2022/05/10 00:58:26;;;;;;;6.68;2.90;;;;;;;10.80;79.75;101924.47;4855670;29;20428;-81
2022/05/10 01:00:55;;;;;;;16.13;3.25;;;;;;;10.78;79.16;101908.84;4858148;29;20033;-80
2022/05/10 01:03:27;;;;;;;7.75;2.90;;;;;;;10.79;79.20;101915.75;4849619;29;20040;-79
2022/05/10 01:05:56;;;;;;;10.77;3.33;;;;;;;10.84;78.61;101908.34;4849561;29;20037;-82
2022/05/10 01:08:43;;;;;;;11.70;3.63;;;;;;;10.76;79.31;101913.38;4850777;29;20049;-82
2022/05/10 01:11:11;;;;;;;7.95;3.00;;;;;;;10.64;80.08;101909.91;4842125;29;20097;-79
2022/05/10 01:13:40;;;;;;;6.15;2.88;;;;;;;10.64;81.17;101901.19;4843377;29;20516;-80
2022/05/10 01:16:15;;;;;;;11.85;3.58;;;;;;;10.60;80.21;101894.50;4865209;29;20033;-80
2022/05/10 01:18:41;;;;;;;11.63;3.28;;;;;;;10.65;80.84;101902.88;4844200;29;20045;-80
2022/05/10 01:21:31;;;;;;;10.30;3.08;;;;;;;10.59;81.03;101890.25;4854584;29;20100;-80
2022/05/10 01:24:32;;;;;;;9.52;3.50;;;;;;;10.71;78.60;101879.59;4863655;29;20046;-80
2022/05/10 01:27:18;;;;;;;9.27;3.35;;;;;;;10.68;79.38;101879.00;4859953;29;20105;-81
2022/05/10 01:30:11;;;;;;;9.45;3.50;;;;;;;10.70;80.00;101871.88;4856983;29;20407;-80
2022/05/10 01:35:26;;;;;;;8.20;3.53;;;;;;;10.39;80.63;101879.47;4851887;29;19916;-80
2022/05/10 01:37:57;;;;;;;11.85;3.60;;;;;;;10.45;81.86;101876.41;4837085;29;20037;-79
2022/05/10 01:40:35;;;;;;;7.90;3.30;;;;;;;10.30;81.41;101870.53;4852547;29;20053;-79
2022/05/10 01:43:22;;;;;;;6.68;3.33;;;;;;;10.20;82.34;101853.78;4859212;29;20100;-80
2022/05/10 01:45:55;;;;;;;12.07;4.03;;;;;;;10.24;83.21;101860.47;4861070;29;20061;-80
2022/05/10 01:48:22;;;;;;;8.30;3.30;;;;;;;10.21;83.37;101846.75;4846883;29;20474;-80
2022/05/10 01:50:52;;;;;;;12.30;3.65;;;;;;;10.19;82.77;101843.41;4851092;29;20072;-79
2022/05/10 01:53:32;;;;;;;8.27;3.35;;;;;;;10.21;83.43;101849.38;4861063;29;20500;-79
2022/05/10 01:56:23;;;;;;;12.00;3.30;;;;;;;10.29;83.21;101841.78;4859884;29;20085;-78
2022/05/10 01:58:49;;;;;;;8.18;3.58;;;;;;;10.30;82.92;101846.03;4835658;29;20056;-78
2022/05/10 02:01:24;;;;;;;11.18;3.90;;;;;;;10.35;82.88;101835.25;4858792;29;20037;-79
2022/05/10 02:04:15;;;;;;;7.05;3.42;;;;;;;10.38;83.61;101833.22;4842836;29;20741;-78
2022/05/10 02:07:00;;;;;;;7.97;3.33;;;;;;;10.30;83.77;101828.56;4860307;29;20148;-80
2022/05/10 02:09:48;;;;;;;11.60;3.55;;;;;;;10.24;83.74;101825.53;4859896;29;20033;-81
2022/05/10 02:12:31;;;;;;;10.02;3.28;;;;;;;10.26;84.58;101826.25;4858118;29;20037;-80
2022/05/10 02:15:10;;;;;;;8.23;3.47;;;;;;;10.18;83.94;101821.59;4843852;29;20063;-81
2022/05/10 02:17:42;;;;;;;9.88;3.65;;;;;;;10.04;85.13;101822.66;4830199;29;20048;-78
2022/05/10 02:20:31;;;;;;;8.93;3.40;;;;;;;10.07;85.11;101824.22;4857190;29;20094;-79
2022/05/10 02:23:04;;;;;;;7.93;3.78;;;;;;;10.00;86.11;101820.38;4870476;29;20043;-81
2022/05/10 02:25:34;;;;;;;9.82;3.33;;;;;;;9.91;85.47;101830.63;4857442;29;20042;-78
2022/05/10 02:28:19;;;;;;;14.45;3.45;;;;;;;9.90;86.25;101818.44;4861608;29;20057;-80
2022/05/10 02:30:52;;;;;;;13.68;3.60;;;;;;;9.87;86.17;101823.09;4856835;29;20127;-81
2022/05/10 02:33:19;;;;;;;9.18;3.60;;;;;;;9.82;86.63;101809.53;4858466;29;20062;-79
2022/05/10 02:35:50;;;;;;;8.57;3.65;;;;;;;9.79;87.71;101823.66;4857518;29;20037;-80
2022/05/10 02:38:39;;;;;;;8.70;3.50;;;;;;;9.80;87.84;101798.31;4843457;29;20101;-80
2022/05/10 02:41:12;;;;;;;8.75;3.67;;;;;;;9.94;87.35;101805.97;4846284;29;20038;-79
2022/05/10 02:43:56;;;;;;;9.98;3.78;;;;;;;9.93;87.08;101785.97;4838645;29;20111;-81
2022/05/10 02:46:25;;;;;;;7.53;3.60;;;;;;;9.99;86.99;101798.59;4848575;29;20034;-80
2022/05/10 02:48:51;;;;;;;8.82;3.80;;;;;;;9.96;87.13;101790.13;4859115;29;20034;-80
2022/05/10 02:51:17;;;;;;;7.28;3.70;;;;;;;9.92;86.75;101789.50;4849437;29;20049;-79
2022/05/10 02:53:44;;;;;;;12.30;3.67;;;;;;;9.96;86.93;101784.88;4849803;29;20060;-78
2022/05/10 02:56:13;;;;;;;9.98;3.40;;;;;;;9.92;88.47;101784.28;4845415;29;20048;-80
2022/05/10 02:58:50;;;;;;;13.02;3.78;;;;;;;9.91;89.03;101782.63;4843921;29;20116;-80
2022/05/10 03:01:26;;;;;;;10.50;3.95;;;;;;;9.86;88.13;101785.56;4863854;29;20058;-79
2022/05/10 03:03:53;;;;;;;7.18;3.60;;;;;;;9.84;88.79;101778.78;4852926;29;20077;-82
2022/05/10 03:06:21;;;;;;;11.23;3.97;;;;;;;9.73;89.15;101787.44;4861052;29;20046;-79
2022/05/10 03:08:49;;;;;;;7.72;3.60;;;;;;;9.59;89.46;101769.31;4863794;29;20681;-79
2022/05/10 03:11:15;;;;;;;7.28;3.70;;;;;;;9.65;89.93;101781.97;4846361;29;20136;-79
2022/05/10 03:13:42;;;;;;;7.55;3.40;;;;;;;9.70;90.77;101771.97;4856341;29;20121;-81
2022/05/10 03:16:07;;;;;;;8.07;3.90;;;;;;;9.65;90.03;101764.47;4856030;29;20120;-80
2022/05/10 03:18:34;;;;;;;9.73;3.95;;;;;;;9.64;90.10;101754.09;4861134;29;20041;-80
2022/05/10 03:21:00;;;;;;;10.77;4.00;;;;;;;9.66;90.67;101767.91;4861006;29;20508;-81
2022/05/10 03:23:27;;;;;;;7.50;3.63;;;;;;;9.58;91.08;101754.56;4861168;29;20076;-80
2022/05/10 03:25:57;;;;;;;10.13;3.60;;;;;;;9.56;91.55;101757.28;4856512;29;20132;-79
2022/05/10 03:28:23;;;;;;;7.38;3.80;;;;;;;9.50;91.33;101769.06;4860142;29;20052;-79
2022/05/10 03:30:50;;;;;;;12.80;4.13;;;;;;;9.41;93.65;101764.50;4852754;29;20817;-78
2022/05/10 03:33:16;;;;;;;11.63;4.43;;;;;;;9.32;93.93;101763.41;4854066;29;20554;-80
2022/05/10 03:35:42;;;;;;;11.63;3.80;;;;;;;9.36;93.85;101764.00;4850897;29;20054;-79
2022/05/10 03:38:08;;;;;;;8.77;3.70;;;;;;;9.54;92.43;101765.25;4860368;29;20050;-79
2022/05/10 03:40:33;;;;;;;10.82;4.13;;;;;;;9.71;91.20;101758.75;4856214;29;20037;-81
2022/05/10 03:43:00;;;;;;;6.28;3.63;;;;;;;9.77;92.02;101770.53;4860850;29;20037;-81
2022/05/10 03:45:26;;;;;;;9.63;3.72;;;;;;;9.65;91.54;101761.84;4863754;29;20041;-80
2022/05/10 03:47:52;;;;;;;13.18;3.58;;;;;;;9.69;91.38;101765.06;4864623;29;20062;-82
2022/05/10 03:50:20;;;;;;;9.35;3.55;;;;;;;9.72;92.73;101746.50;4856228;29;20045;-79
2022/05/10 03:52:46;;;;;;;15.68;3.70;;;;;;;9.85;91.75;101744.63;4867422;29;20033;-81
2022/05/10 03:55:15;;;;;;;11.70;3.72;;;;;;;9.93;90.44;101746.66;4861639;29;20060;-81
2022/05/10 03:57:41;;;;;;;6.90;4.07;;;;;;;9.94;91.68;101733.44;4856574;29;20033;-82
2022/05/10 04:00:11;;;;;;;7.32;3.72;;;;;;;9.88;92.65;101736.50;4859371;29;20112;-79
2022/05/10 04:02:40;;;;;;;;;;;;;;;9.85;93.43;101743.75;4856886;29;20034;-80
2022/05/10 04:05:07;;;;;;;10.85;4.40;;;;;;;9.89;92.36;101734.75;4871323;29;19983;-79
2022/05/10 04:07:33;;;;;;;11.00;4.07;;;;;;;9.86;92.60;101743.66;4858217;29;20037;-80
2022/05/10 04:09:59;;;;;;;12.07;3.92;;;;;;;9.97;92.66;101728.91;4860800;29;20041;-79
2022/05/10 04:12:24;;;;;;;9.25;4.32;;;;;;;9.88;92.07;101720.78;4851321;29;20536;-81
2022/05/10 04:14:50;;;;;;;9.05;3.80;;;;;;;9.92;92.94;101732.69;4848397;29;20048;-80
2022/05/10 04:17:15;;;;;;;11.40;4.22;;;;;;;9.90;93.02;101724.09;4858932;29;20049;-80
2022/05/10 04:19:41;;;;;;;9.88;3.95;;;;;;;9.87;93.79;101719.13;4860620;29;20040;-79
2022/05/10 04:22:06;;;;;;;13.68;4.28;;;;;;;10.06;92.41;101731.63;4843904;29;20050;-80
2022/05/10 04:24:32;;;;;;;8.40;3.85;;;;;;;10.14;91.32;101724.00;4846202;29;20540;-80
2022/05/10 04:26:58;;;;;;;6.00;3.40;;;;;;;10.20;92.15;101724.47;4842452;29;20044;-78
2022/05/10 04:29:23;;;;;;;6.90;3.88;;;;;;;10.13;94.04;101714.50;4847935;29;20056;-80
2022/05/10 04:31:49;;;;;;;9.00;3.45;;;;;;;10.25;93.14;101728.41;4849489;29;20071;-80
2022/05/10 04:34:15;;;;;;;9.95;4.22;;;;;;;10.30;93.74;101730.66;4853783;29;20048;-80
2022/05/10 04:36:40;;;;;;;9.57;3.75;;;;;;;10.33;93.09;101723.44;4830060;29;20041;-79
2022/05/10 04:39:06;;;;;;;9.57;4.10;;;;;;;10.38;93.02;101715.22;4851541;29;20049;-79
2022/05/10 04:41:34;;;;;;;10.48;4.07;;;;;;;10.43;92.74;101714.84;4839787;29;20087;-82
2022/05/10 04:44:05;;;;;;;7.63;3.83;;;;;;;10.47;93.03;101711.00;4853011;29;20053;-80
2022/05/10 04:46:32;;;;;;;9.10;4.07;;;;;;;10.66;91.70;101721.72;4846328;29;20053;-79
2022/05/10 04:48:58;;;;;;;9.05;4.00;;;;;;;10.84;91.19;101714.13;4855750;29;20049;-78
2022/05/10 04:51:25;;;;;;;10.77;3.78;;;;;;;10.91;90.19;101712.69;4858130;29;20041;-82
2022/05/10 04:53:52;;;;;;;8.10;3.60;;;;;;;11.00;90.34;101710.25;4851433;29;20103;-79
2022/05/10 04:56:18;;;;;;;7.72;3.83;;;;;;;11.08;89.14;101719.19;4833282;29;20037;-80
2022/05/10 04:58:44;;;;;;;10.65;4.18;;;;;;;11.26;87.58;101715.97;4854082;29;20309;-81
2022/05/10 05:01:13;;;;;;;8.45;4.30;;;;;;;11.33;87.83;101700.56;4855634;29;20037;-78
2022/05/10 05:03:43;;;;;;;8.30;4.10;;;;;;;11.41;86.90;101717.34;4851889;29;20040;-79
2022/05/10 05:06:08;;;;;;;13.98;4.28;;;;;;;11.45;87.30;101715.28;4855790;29;20053;-81
2022/05/10 05:08:36;;;;;;;9.80;4.15;;;;;;;11.49;87.37;101711.47;4841751;29;20125;-80
2022/05/10 05:11:01;;;;;;;10.70;4.05;;;;;;;11.56;87.23;101711.75;4847829;29;20522;-78
2022/05/10 05:13:27;;;;;;;13.55;4.10;;;;;;;11.55;87.29;101692.56;4846799;29;20060;-80
2022/05/10 05:15:53;;;;;;;10.23;4.22;;;;;;;11.69;87.66;101717.66;4855498;29;20038;-80
2022/05/10 05:18:19;;;;;;;9.23;4.38;;;;;;;11.67;87.67;101706.44;4859407;29;20493;-80
2022/05/10 05:20:45;;;;;;;10.15;3.95;;;;;;;11.75;88.15;101708.41;4856912;29;20096;-79
2022/05/10 05:23:11;;;;;;;6.95;4.05;;;;;;;11.78;88.24;101706.34;4853372;29;20041;-80
2022/05/10 05:25:39;;;;;;;9.50;4.00;;;;;;;11.81;87.57;101708.75;4854565;29;20079;-78
2022/05/10 05:28:06;;;;;;;9.35;3.97;;;;;;;11.85;86.85;101699.63;4859161;29;20042;-80
2022/05/10 05:30:33;;;;;;;9.18;4.50;;;;;;;11.94;87.05;101708.56;4856318;29;20061;-81
2022/05/10 05:32:59;;;;;;;12.52;4.25;;;;;;;11.93;86.52;101706.88;4857114;29;20044;-82
2022/05/10 05:35:25;;;;;;;9.02;4.30;;;;;;;11.87;88.44;101707.38;4855990;29;20089;-79
2022/05/10 05:37:53;;;;;;;9.60;4.00;;;;;;;11.93;89.02;101714.75;4870610;29;20056;-81
2022/05/10 05:40:21;;;;;;;6.05;3.60;;;;;;;11.98;89.46;101712.56;4874832;29;20029;-81
2022/05/10 05:42:47;;;;;;;10.52;3.80;;;;;;;12.05;88.14;101710.25;4830000;29;20045;-80
2022/05/10 05:45:15;;;;;;;10.90;4.40;;;;;;;12.05;88.35;101704.97;4828357;29;20053;-81
2022/05/10 05:47:41;;;;;;;9.07;4.22;;;;;;;12.20;87.30;101708.09;4826038;29;20597;-80
2022/05/10 05:50:08;;;;;;;12.63;4.28;;;;;;;12.30;87.00;101714.22;4839043;29;20128;-80
2022/05/10 05:52:35;;;;;;;6.60;4.03;;;;;;;12.36;88.20;101712.84;4860932;29;20075;-82
2022/05/10 05:55:00;;;;;;;9.25;4.47;;;;;;;12.44;88.29;101707.75;4828138;29;20057;-78
2022/05/10 05:57:26;;;;;;;12.18;4.20;;;;;;;12.54;86.59;101694.59;4853563;29;20139;-79
2022/05/10 05:59:56;;;;;;;10.98;4.40;;;;;;;12.74;86.07;101706.81;4847490;29;20040;-82
2022/05/10 06:02:23;;;;;;;9.70;4.15;;;;;;;12.77;85.98;101705.69;4843319;29;20065;-79
2022/05/10 06:04:49;;;;;;;18.15;4.88;;;;;;;12.88;86.44;101708.19;4858263;29;20048;-79
2022/05/10 06:07:15;;;;;;;8.93;4.00;;;;;;;12.95;86.19;101705.84;4844078;29;20065;-82
2022/05/10 06:09:42;;;;;;;10.45;4.63;;;;;;;13.14;85.49;101707.66;4855498;29;20792;-80
2022/05/10 06:12:10;;;;;;;8.43;4.38;;;;;;;13.17;85.43;101700.31;4851892;29;20493;-80
2022/05/10 06:14:37;;;;;;;7.22;4.57;;;;;;;13.12;84.78;101691.97;4859938;29;20096;-79
2022/05/10 06:17:04;;;;;;;12.00;4.88;;;;;;;13.23;85.37;101685.75;4831633;29;20049;-80
2022/05/10 06:19:30;;;;;;;9.43;4.25;;;;;;;13.36;85.51;101686.31;4846387;29;20036;-79
2022/05/10 06:21:56;;;;;;;8.98;4.32;;;;;;;13.46;85.33;101685.47;4840124;29;20042;-80
2022/05/10 06:24:23;;;;;;;7.78;4.20;;;;;;;13.62;85.68;101685.69;4831174;29;20060;-81
2022/05/10 06:26:49;;;;;;;12.55;4.10;;;;;;;13.88;84.88;101683.25;4845246;29;20037;-80
2022/05/10 06:29:15;;;;;;;12.95;4.20;;;;;;;14.06;84.45;101693.03;4858346;29;20077;-81
2022/05/10 06:31:42;;;;;;;12.10;4.15;;;;;;;14.25;82.20;101689.44;4864029;29;20164;-81
2022/05/10 06:34:09;;;;;;;11.43;3.65;;;;;;;14.33;82.70;101679.81;4853960;29;20145;-83
2022/05/10 06:36:35;;;;;;;7.63;3.92;;;;;;;14.45;82.82;101691.00;4850202;29;20105;-79
2022/05/10 06:39:01;;;;;;;9.98;4.32;;;;;;;14.58;82.08;101683.56;4851731;29;20093;-81
2022/05/10 06:41:26;;;;;;;9.15;4.10;;;;;;;14.80;81.65;101684.09;4857151;29;20828;-81
2022/05/10 06:43:52;;;;;;;9.68;4.05;;;;;;;14.98;81.30;101679.63;4857233;29;20029;-79
2022/05/10 06:46:23;;;;;;;10.15;3.97;;;;;;;15.09;80.76;101675.94;4861824;29;20041;-79
2022/05/10 06:48:49;;;;;;;8.65;4.03;;;;;;;15.21;79.92;101667.75;4857614;29;20061;-80
2022/05/10 06:51:17;;;;;;;11.52;3.97;;;;;;;15.39;80.42;101671.19;4857480;29;20061;-82
2022/05/10 06:53:43;;;;;;;13.77;4.35;;;;;;;15.61;78.29;101667.16;4857431;29;20041;-79
2022/05/10 06:56:09;;;;;;;6.43;3.58;;;;;;;15.58;77.73;101660.38;4859242;29;20041;-82
2022/05/10 06:58:35;;;;;;;11.95;3.95;;;;;;;15.73;79.23;101655.38;4852271;29;20101;-78
2022/05/10 07:01:01;;;;;;;8.10;3.53;;;;;;;15.80;78.71;101649.44;4857820;29;20037;-80
2022/05/10 07:03:32;;;;;;;15.63;4.13;;;;;;;15.88;77.66;101652.97;4849990;29;20065;-81
2022/05/10 07:05:59;;;;;;;6.88;4.07;;;;;;;16.02;78.82;101659.47;4850342;29;20137;-79
2022/05/10 07:08:25;;;;;;;10.50;3.60;;;;;;;16.10;80.20;101656.81;4849109;29;20033;-79
2022/05/10 07:10:50;;;;;;;10.40;3.70;;;;;;;16.17;78.63;101646.44;4855987;29;20585;-78
2022/05/10 07:13:18;;;;;;;5.65;3.63;;;;;;;16.30;77.41;101640.69;4847045;29;20030;-82
2022/05/10 07:15:44;;;;;;;7.82;3.63;;;;;;;16.28;77.68;101642.66;4856321;29;20136;-80
2022/05/10 07:18:11;;;;;;;9.20;3.72;;;;;;;16.31;78.55;101634.38;4845391;29;20049;-82
2022/05/10 07:20:36;;;;;;;12.65;4.30;;;;;;;16.53;78.23;101639.06;4860341;29;20064;-80
2022/05/10 07:23:02;;;;;;;8.65;3.63;;;;;;;16.67;75.67;101634.94;4853679;29;20073;-80
2022/05/10 07:25:28;;;;;;;12.23;3.55;;;;;;;17.00;74.17;101647.38;4849250;29;20038;-80
2022/05/10 07:27:55;;;;;;;10.68;3.80;;;;;;;17.29;73.15;101645.03;4857995;29;20056;-80
2022/05/10 07:30:22;;;;;;;11.65;4.20;;;;;;;17.64;72.97;101648.25;4861058;29;20780;-81
2022/05/10 07:32:48;;;;;;;8.55;4.10;;;;;;;17.92;72.42;101641.72;4851496;29;20171;-79
2022/05/10 07:35:14;;;;;;;9.75;3.78;;;;;;;18.09;70.27;101640.63;4829425;29;20076;-79
2022/05/10 07:37:39;;;;;;;9.18;4.20;;;;;;;18.26;71.20;101642.19;4860216;29;20393;-81
2022/05/10 07:40:07;;;;;;;7.28;3.38;;;;;;;18.45;68.95;101645.38;4856133;29;20123;-82
2022/05/10 07:42:36;;;;;;;7.47;3.55;;;;;;;18.60;69.67;101645.44;4849743;29;20033;-82
2022/05/10 07:45:07;;;;;;;12.80;3.95;;;;;;;18.53;68.74;101637.34;4860866;29;20701;-77
2022/05/10 07:47:32;;;;;;;9.65;3.30;;;;;;;18.60;69.75;101643.63;4838289;29;20049;-81
2022/05/10 07:49:59;;;;;;;9.43;3.00;;;;;;;18.65;68.83;101630.63;4822660;29;20067;-78
2022/05/10 07:52:25;;;;;;;7.43;3.67;;;;;;;18.86;68.52;101637.97;4859228;29;20029;-81
2022/05/10 07:54:51;;;;;;;8.02;3.35;;;;;;;18.93;68.29;101634.56;4849106;29;20038;-79
2022/05/10 07:57:16;;;;;;;7.13;3.42;;;;;;;19.08;69.06;101637.25;4867866;29;20076;-82
2022/05/10 07:59:42;;;;;;;5.65;3.47;;;;;;;19.10;67.58;101636.09;4866210;29;20064;-78
2022/05/10 08:02:08;;;;;;;5.13;2.90;;;;;;;19.30;67.89;101635.56;4858467;29;20045;-78
2022/05/10 08:04:34;;;;;;;9.68;3.40;;;;;;;19.53;65.78;101636.28;4843857;29;20048;-79
2022/05/10 08:07:01;;;;;;;10.63;2.95;;;;;;;19.51;67.20;101621.53;4860486;29;20101;-78
2022/05/10 08:09:26;;;;;;;8.30;3.20;;;;;;;19.64;66.47;101629.69;4855321;29;20038;-79
2022/05/10 08:11:52;;;;;;;8.60;3.20;;;;;;;19.77;66.71;101626.41;4833702;29;20034;-79
2022/05/10 08:14:18;;;;;;;5.15;2.92;;;;;;;19.90;66.30;101621.22;4856436;29;20089;-78
2022/05/10 08:16:43;;;;;;;11.68;3.25;;;;;;;20.10;64.70;101617.97;4849628;29;20617;-78
2022/05/10 08:19:09;;;;;;;14.63;4.07;;;;;;;20.12;65.16;101624.75;4837214;29;20501;-80
2022/05/10 08:21:34;;;;;;;10.40;2.85;;;;;;;20.23;67.03;101626.13;4860669;29;20126;-79
2022/05/10 08:24:00;;;;;;;8.10;2.92;;;;;;;20.31;65.29;101623.31;4850827;29;20127;-80
2022/05/10 08:26:25;;;;;;;12.65;3.40;;;;;;;20.30;64.39;101613.66;4838401;29;20045;-79
2022/05/10 08:28:51;;;;;;;10.65;2.90;;;;;;;20.39;65.19;101620.53;4841181;29;20436;-79
2022/05/10 08:31:20;;;;;;;7.78;2.65;;;;;;;20.46;64.27;101615.25;4853490;29;20042;-81
2022/05/10 08:33:46;;;;;;;9.13;2.97;;;;;;;20.57;62.62;101622.75;4849166;29;20034;-81
2022/05/10 08:36:12;;;;;;;12.00;2.90;;;;;;;20.79;62.51;101618.25;4854677;29;20100;-79
2022/05/10 08:38:38;;;;;;;5.63;2.90;;;;;;;20.94;62.61;101620.81;4853829;29;20113;-81
2022/05/10 08:41:10;;;;;;;9.85;3.13;;;;;;;21.22;62.72;101619.97;4846840;29;20041;-80
2022/05/10 08:43:47;;;;;;;7.22;2.65;;;;;;;21.56;63.63;101623.69;4837718;29;20061;-80
2022/05/10 08:46:17;;;;;;;9.27;3.00;;;;;;;21.74;61.58;101618.63;4844905;29;20033;-77
2022/05/10 08:48:46;;;;;;;7.20;2.85;;;;;;;21.92;61.41;101618.06;4858368;29;20520;-78
2022/05/10 08:51:12;;;;;;;6.47;3.10;;;;;;;21.90;60.63;101611.28;4860242;29;20782;-79
2022/05/10 08:53:38;;;;;;;7.10;3.80;;;;;;;21.77;59.58;101617.41;4844742;29;20033;-80
2022/05/10 08:56:39;;;;;;;14.65;3.50;;;;;;;21.61;58.83;101621.25;4860126;29;20073;-77
2022/05/10 08:59:56;;;;;;;10.32;3.42;;;;;;;21.35;62.13;101614.72;4857699;29;20041;-80
2022/05/10 09:02:44;;;;;;;11.15;3.33;;;;;;;21.26;60.90;101610.56;4817079;29;20050;-79
2022/05/10 09:05:45;;;;;;;14.23;3.60;;;;;;;21.24;59.72;101604.59;4852362;29;20045;-78
2022/05/10 09:08:28;;;;;;;5.07;3.30;;;;;;;21.38;61.49;101600.19;4844460;29;20524;-80
2022/05/10 09:10:59;;;;;;;9.05;3.38;;;;;;;21.59;60.29;101604.63;4844069;29;20041;-81
2022/05/10 09:13:25;;;;;;;5.53;3.13;;;;;;;21.70;59.11;101589.84;4860626;29;20059;-79
2022/05/10 09:16:09;;;;;;;14.05;4.00;;;;;;;22.12;59.38;101595.94;4858964;29;20041;-80
2022/05/10 09:18:40;;;;;;;10.27;3.30;;;;;;;22.32;57.52;101593.31;4838630;29;20053;-81
2022/05/10 09:21:09;;;;;;;9.33;3.33;;;;;;;22.52;55.93;101593.34;4853773;29;20034;-79
2022/05/10 09:24:06;;;;;;;14.57;3.10;;;;;;;22.79;58.92;101593.34;4848162;29;20058;-81
2022/05/10 09:26:36;;;;;;;6.18;2.90;;;;;;;23.02;52.96;101596.41;4856057;29;20034;-79
2022/05/10 09:29:33;;;;;;;9.05;3.28;;;;;;;22.99;53.92;101590.66;4875429;29;20041;-78
2022/05/10 09:35:06;;;;;;;4.90;2.85;;;;;;;22.87;50.59;101585.94;4869611;29;20038;-79
2022/05/10 09:37:38;;;;;;;9.68;2.65;;;;;;;22.98;52.13;101589.00;4859916;29;20509;-82
2022/05/10 09:40:10;;;;;;;9.43;2.85;;;;;;;22.98;50.97;101579.13;4855043;29;20045;-80
2022/05/10 09:42:39;;;;;;;3.60;2.80;;;;;;;22.76;50.12;101569.72;4854187;29;20493;-79
2022/05/10 09:45:17;;;;;;;8.40;2.85;;;;;;;22.55;50.73;101567.03;4854080;29;20041;-79
2022/05/10 09:48:12;;;;;;;13.88;2.70;;;;;;;22.57;53.16;101566.03;4850180;29;20039;-78
2022/05/10 09:50:44;;;;;;;5.95;2.50;;;;;;;22.67;51.87;101558.38;4859450;29;20033;-78
2022/05/10 09:53:23;;;;;;;8.05;2.40;;;;;;;23.05;50.99;101560.41;4831941;29;20044;-81
2022/05/10 09:56:11;;;;;;;6.32;2.40;;;;;;;23.41;50.77;101557.19;4867903;29;20041;-79
2022/05/10 09:58:42;;;;;;;6.03;2.25;;;;;;;23.70;49.70;101555.03;4856460;29;20033;-79
2022/05/10 10:01:11;;;;;;;6.28;2.83;;;;;;;23.80;48.25;101543.88;4859303;29;20101;-78
2022/05/10 10:03:40;;;;;;;7.78;2.35;;;;;;;23.96;47.22;101546.06;4857265;29;20054;-78
2022/05/10 10:06:19;;;;;;;6.00;1.95;;;;;;;24.04;45.16;101548.47;4864041;29;20049;-83
2022/05/10 10:08:54;;;;;;;6.05;2.20;;;;;;;23.92;45.33;101539.44;4863631;29;20033;-80
2022/05/10 10:11:23;;;;;;;6.05;2.00;;;;;;;23.98;46.90;101541.28;4859408;29;20037;-80
2022/05/10 10:14:03;;;;;;;6.80;2.70;;;;;;;23.70;46.08;101539.78;4851879;29;20046;-79
2022/05/10 10:16:33;;;;;;;4.28;2.30;;;;;;;23.67;46.57;101529.47;4848833;29;20034;-77
2022/05/10 10:19:09;;;;;;;5.40;1.90;;;;;;;23.70;46.61;101530.94;4851477;29;20038;-79
2022/05/10 10:21:45;;;;;;;5.72;2.22;;;;;;;23.63;47.67;101533.63;4847467;29;20397;-78
2022/05/10 10:24:21;;;;;;;6.05;2.10;;;;;;;23.81;47.73;101532.09;4842412;29;20053;-79
2022/05/10 10:26:55;;;;;;;7.68;2.17;;;;;;;23.88;44.76;101517.66;4854660;29;20092;-78
2022/05/10 10:29:39;;;;;;;5.63;2.20;;;;;;;24.18;45.60;101513.53;4855007;29;20037;-79
2022/05/10 10:32:13;;;;;;;4.13;2.13;;;;;;;24.28;44.27;101505.81;4849961;29;20061;-79
2022/05/10 10:34:57;;;;;;;5.97;2.25;;;;;;;24.43;45.13;101510.81;4852026;29;20050;-78
2022/05/10 10:37:36;;;;;;;5.97;2.38;;;;;;;24.48;43.10;101503.75;4850326;29;20126;-78
2022/05/10 10:40:07;;;;;;;6.80;2.13;;;;;;;24.63;44.07;101508.00;4858702;29;20484;-78
2022/05/10 10:42:49;;;;;;;6.18;2.17;;;;;;;24.45;42.51;101500.72;4866479;29;20049;-79
2022/05/10 10:45:16;;;;;;;8.15;2.13;;;;;;;24.64;43.90;101498.91;4873748;29;20041;-81
2022/05/10 10:48:03;;;;;;;4.72;2.00;;;;;;;25.10;41.31;101492.19;4863625;29;20524;-81
2022/05/10 10:50:34;;;;;;;7.72;2.00;;;;;;;25.16;40.79;101485.09;4856464;29;20041;-81
2022/05/10 10:53:03;;;;;;;9.70;2.20;;;;;;;25.48;42.19;101491.13;4851653;29;20055;-77
2022/05/10 10:55:51;;;;;;;12.52;2.10;;;;;;;25.36;40.99;101482.22;4849746;29;20561;-81
2022/05/10 10:58:36;;;;;;;13.07;2.17;;;;;;;25.68;40.15;101477.41;4858070;29;20063;-80
2022/05/10 11:01:23;;;;;;;5.30;2.00;;;;;;;25.30;41.60;101475.03;4849111;29;20595;-78
2022/05/10 11:04:01;;;;;;;6.18;2.53;;;;;;;25.12;41.59;101470.50;4859634;29;20045;-80
2022/05/10 11:06:27;;;;;;;5.47;2.20;;;;;;;24.87;42.07;101468.75;4849274;29;20059;-81
2022/05/10 11:09:20;;;;;;;7.63;2.13;;;;;;;24.74;44.32;101463.53;4856282;29;20692;-81
2022/05/10 11:11:55;;;;;;;;;;;;;;;24.74;44.06;101460.84;4853183;29;20042;-78
2022/05/10 11:14:30;;;;;;;6.13;2.05;;;;;;;24.84;44.30;101461.94;4865011;29;20473;-79
2022/05/10 11:17:21;;;;;;;8.32;1.98;;;;;;;24.98;45.33;101446.53;4866976;29;20045;-79
2022/05/10 11:20:16;;;;;;;6.35;1.90;;;;;;;24.80;41.87;101451.91;4863097;29;20030;-81
2022/05/10 11:22:51;;;;;;;9.48;2.13;;;;;;;24.64;40.08;101447.97;4864089;29;20120;-78
2022/05/10 11:25:54;;;;;;;5.72;2.00;;;;;;;24.77;41.93;101452.34;4860651;29;20811;-82
2022/05/10 11:28:52;;;;;;;9.65;2.17;;;;;;;24.96;40.04;101447.78;4866942;29;20045;-81
2022/05/10 11:31:48;;;;;;;7.47;2.15;;;;;;;24.80;39.30;101441.16;4821140;29;20435;-80
2022/05/10 11:34:27;;;;;;;4.82;2.10;;;;;;;24.88;41.23;101432.81;4860748;29;20796;-81
2022/05/10 11:37:01;;;;;;;8.10;2.30;;;;;;;25.08;42.22;101439.81;4879513;29;20521;-77
2022/05/10 11:39:46;;;;;;;6.35;2.03;;;;;;;25.10;40.71;101427.78;4861064;29;20101;-81
2022/05/10 11:42:43;;;;;;;4.60;1.70;;;;;;;25.15;42.80;101421.75;4853888;29;20064;-79
2022/05/10 11:45:36;;;;;;;8.27;1.90;;;;;;;25.23;41.80;101413.41;4845596;29;20061;-78
2022/05/10 11:48:09;;;;;;;4.13;2.20;;;;;;;25.11;40.53;101413.34;4865522;29;20034;-79
2022/05/10 11:51:38;;;;;;;6.40;2.63;;;;;;;25.09;42.31;101411.91;4844815;29;20059;-79
2022/05/10 11:54:04;;;;;;;7.80;2.33;;;;;;;24.99;42.03;101412.44;4846886;29;20038;-79
2022/05/10 11:56:38;;;;;;;5.68;2.20;;;;;;;25.00;41.05;101409.53;4853600;29;20051;-80
2022/05/10 11:59:14;;;;;;;8.38;2.20;;;;;;;25.17;43.54;101407.03;4858619;29;20056;-79
2022/05/10 12:01:49;;;;;;;4.18;2.10;;;;;;;25.33;40.95;101402.09;4850990;29;20101;-79
2022/05/10 12:04:37;;;;;;;3.88;2.00;;;;;;;25.24;40.68;101399.75;4852214;29;20054;-80